Ride Results

NEEEC Marathon Weekend (18-04-2014)
Ride distance: 80.0 km

Outcomes - NEEEC Marathon Weekend (18-04-2014)
Division No. of Entries Retired / DNE Completed Withdrawn Ineligible V/O Percentage Completed
HW 6 - 6 - - - 100.00%
MW 11 - 7 - - 4 63.64%
LW 5 - 4 - - 1 80.00%
JN 11 - 9 - - 2 81.82%
Totals 33 - 26 - - 7 78.79%
Results - NEEEC Marathon Weekend (18-04-2014)
No. Rider Horse Place Time Leg Speeds Total
Km/Hr
H/R bpm
Heavyweight
38 Tony Purton Beer Street Dimity 1 (BC) 5:05:00 17.1, 14.5 15.74 35, 49, 51 (Avg:50)
O Noel Lockhart Ralvon Splendour 2 5:26:00 15.5, 13.9 14.72 29, 40, 50 (Avg:45)
15 Mark Green Lynn-Roy Sharik 3 7:12:00 10.8, 11.3 11.11 33, 40, 54 (Avg:47)
272 Jai Ingram Ma Twag 4 8:02:00 9.9, 9.9 9.96 47, 47, 44 (Avg:45)
199 Dennis Foley Jnr Torryburn Spirit of Padron 5 8:24:00 9.5, 9.4 9.52 38, 50, 52 (Avg:51)
238 Dakota Wolf Awarran Park Princely Aura 6 8:32:00 9.5, 9.1 9.38 34, 39, 47 (Avg:43)
Middleweight
69 Tracey Wyllie Conderosa Arassim 1 6:10:00 13.6, 12.3 12.97 34, 45, 51 (Avg:48)
136 Kaye Mitchell Beer Street Willis 2 6:20:00 15.1, 10.8 12.63 36, 47, 56 (Avg:51)
179 Debbie Grull Lauralyn Notorious 3 (BC) 6:21:00 12.6, 12.5 12.60 37, 48, 42 (Avg:45)
79 Shannon Hill Kantarabia Park Runako 3 6:21:00 12.8, 12.3 12.60 44, 44, 48 (Avg:46)
254 Deb Wyllie Mindari Highly Explosive 5 7:37:00 10.7, 10.3 10.50 38, 47, 53 (Avg:50)
66 Saeed Al Maktoum Vandieman Mirakuru 6 8:01:00 9.9, 9.9 9.98 39, 44, 59 (Avg:51)
287 Salim Al-Waheibi Vandieman Tassie Devil 6 8:01:00 9.9, 9.9 9.98 45, 45, 47 (Avg:46)
92 Blaine Astell Madeline Park Show Girl Lame L2 0:00:00 12.4, 11.9 - 44, 47, 55 (Avg:51)
227 Mary Austin Cookie Lame L1 0:00:00 12.6 - 32, 49 (Avg:49)
289 Ian Davidson Picnic Park Freeman Lame L1 0:00:00 9.9 - 54, 48 (Avg:48)
191 Kylie Williams Elphyn Callum Lame L1 0:00:00 9.9 - 36, 43 (Avg:43)
Lightweight
203 Ellie Woodhouse Cognac 1 6:10:00 13.6, 12.3 12.97 42, 44, 54 (Avg:49)
265 Annemaree Kelly Yandilla Ultimate Affair 2 6:18:00 12.6, 12.7 12.70 52, 46, 50 (Avg:48)
90 Angela Hawks Johean Johan 3 (BC) 6:33:00 12.4, 11.9 12.21 55, 48, 49 (Avg:48)
125 Brooke Brown-Cordell Conderosa Orion 4 7:37:00 10.7, 10.3 10.50 36, 40, 42 (Avg:41)
271 Jessie Herman Highland View Chief Lame L1 0:00:00 12.6 - 31, 43 (Avg:43)
Junior
190 Alice Mitchell Beer Street Lizzy B 1 (BC) 5:05:00 17.1, 14.5 15.74 35, 45, 48 (Avg:46)
113 Kirstie Lockhart Suroco 2 5:26:00 15.5, 13.9 14.72 36, 47, 50 (Avg:48)
249 Corey Foley DJ Ernie 3 6:18:00 12.6, 12.7 12.70 34, 45, 55 (Avg:50)
77 Brett Lockhart The Hobbit 4 6:21:00 12.8, 12.3 12.60 33, 50, 45 (Avg:47)
157 David Anderson Jnr Ausden Reflection 5 7:20:00 10.8, 11.0 10.91 36, 47, 60 (Avg:53)
74 Felicity Perry Mindari Highly Independent 6 7:37:00 10.7, 10.3 10.50 32, 42, 51 (Avg:46)
70 Charlotte Wyllie Shah Ha 6 7:37:00 10.7, 10.3 10.50 30, 37, 47 (Avg:42)
286 Pyper Page Maktoum Sheik 8 8:23:00 9.5, 9.5 9.54 34, 43, 53 (Avg:48)
285 Bronte Page Kalody Park Master Mind 8 8:23:00 9.5, 9.5 9.54 36, 47, 55 (Avg:51)
277 Heather Colbeck Jaimon-Sharhi Baqi Lame L2 0:00:00 9.5, 9.1 - 38, 41, 47 (Avg:44)
209 Grace Huxtable Sandine Gidget Lame L1 0:00:00 13.6 - 39, 53 (Avg:53)